Pagrindinis puslapis
METAR-TAF:

METAR-TAF

Oro uostai :

Linšiopingas, Švedija

platuma: 58-24N, ilguma: 015-41E, Aukštis: 52 m

Dabartinis oras

Ataskaita buvo paskelbta 32 minutes, ne 20:50 UTC
Vėjas 3 kt iš Rytų/Pietryčių
Temperatūra 13°C
Drėgmė 88%
Slėgis 1011 hPa
Matomumas 10 km arba daugiau
nėra debesų žemiau 1500 m ir nėra kamuolinių lietaus debesų

METAR: ESSL 162050Z 11003KT CAVOK 13/11 Q1011

Laikas: 23:22 (21:22 UTC)

Prognozė

Ataskaita buvo paskelbta 1 valandą ir 52 minutes, ne 19:30 UTC
Prognozė galioja nuo 16 metu 20 UTC su 16 metu 22 UTC
Vėjas 5 kt iš Pietryčių
Matomumas 10 km arba daugiau
nėra debesų žemiau 1500 m ir nėra kamuolinių lietaus debesų

TAF: ESSL 161930Z 1620/1622 14005KT CAVOK

Orai ataskaitas ir orų prognozės (METAR, TAF).

turimą stotys yra geltonos ir raudonos taškus žemėlapyje.

Perkelti pele per norėdami pamatyti stoties vardą.

Tada spustelėkite, norėdami matyti oro stebėjimo ir prognozės.

Norėdami pakeisti žemėlapį: spustelėkite ant žalios mygtukų su juodo kryžiaus žemyn,; žalią mygtuką su brūkšneliu, jei norite nutolinti; arba žalių rodyklių gretimoms žemėlapius.


METAR-TAF: